• Join FlightAware (Why Join?)
  • Login
  • US Flag 
05:06AM EDT


 

Airport Tracker/Info


-or-


 

Live Flight TrackerFlight Track Log ✈ MSR962 ✈ 24-Aug-2013 ✈ HECA / CAI - RJBB / KIX

Flight Track Log - Related Links

Times and Time Zones

All times are in EDT time to prevent confusion due to time zone crossing. See the MSR962 flight status page for this flight to view local times or setup timezone preferences in your user account.

Time Position Orientation Groundspeed Altitude Reporting Facility
EDT Latitude Longitude Course Direction KTS MPH feet Rate Location/Type
06:10PM 30.5942 32.1563 54° Northeast  Level Estimated
06:11PM 30.6726 32.2821 54° Northeast  Level Estimated
06:12PM 30.7507 32.4081 54° Northeast  Level Estimated
06:13PM 30.8288 32.5344 54° Northeast  Level Estimated
06:14PM 30.9067 32.6608 54° Northeast  Level Estimated
06:15PM 30.9845 32.7874 54° Northeast  Level Estimated
06:16PM 31.0622 32.9143 54° Northeast  Level Estimated
06:17PM 31.1398 33.0414 54° Northeast  Level Estimated
06:18PM 31.2172 33.1686 55° Northeast  Level Estimated
06:19PM 31.2945 33.2961 55° Northeast  Level Estimated
06:20PM 31.3717 33.4238 55° Northeast  Level Estimated
06:21PM 31.4488 33.5517 55° Northeast  Level Estimated
06:22PM 31.5257 33.6798 55° Northeast  Level Estimated
06:23PM 31.6025 33.8081 55° Northeast  Level Estimated
06:24PM 31.6792 33.9366 55° Northeast  Level Estimated
06:25PM 31.7557 34.0654 55° Northeast  Level Estimated
06:25PM 32.3670 31.7550 55° Northeast 476 548 32,400  Level FlightAware
06:26PM 31.8321 34.1943 55° Northeast  Level Estimated
06:26PM 32.4070 31.8040 46° Northeast 476 548 32,500  Level FlightAware
06:27PM 32.5540 31.9850 46° Northeast 476 548 34,000 720 Climbing FlightAware
06:28PM 32.6020 32.0440 46° Northeast 476 548 34,000  Level FlightAware
06:28PM 32.6700 32.1460 52° Northeast 512 589 34,000 120 Level FlightAware
06:29PM 32.7450 32.2500 49° Northeast 508 585 34,200 720 Climbing FlightAware
06:30PM 32.8130 32.3160 39° Northeast 500 575 35,100 840 Climbing FlightAware
06:30PM 32.8690 32.3760 42° Northeast 500 575 35,200 840 Climbing FlightAware
06:31PM 32.9400 32.4490 41° Northeast 496 571 36,100 1,140 Climbing FlightAware
06:32PM 33.0040 32.5140 40° Northeast 496 571 36,600 720 Climbing FlightAware
06:32PM 33.0650 32.5760 40° Northeast 496 571 37,000 600 Climbing FlightAware
06:33PM 33.1250 32.6380 41° Northeast 498 573 37,300 420 Climbing FlightAware
06:33PM 33.1890 32.7030 40° Northeast 507 583 37,500 420 Climbing FlightAware
06:34PM 33.2490 32.7650 41° Northeast 509 586 37,800 420 Climbing FlightAware
06:34PM 33.3080 32.8260 41° Northeast 510 587 38,000 120 Climbing FlightAware
06:35PM 33.3760 32.8960 41° Northeast 511 588 38,000  Level FlightAware
06:36PM 33.4390 32.9610 41° Northeast 509 586 38,000  Level FlightAware
06:36PM 33.5000 33.0250 41° Northeast 508 585 38,000  Level FlightAware
06:37PM 33.5640 33.0910 41° Northeast 500 575 38,000  Level FlightAware
06:37PM 33.6190 33.1480 41° Northeast 499 574 38,000  Level FlightAware
06:38PM 33.6810 33.2130 41° Northeast 499 574 38,000  Level FlightAware
06:39PM 33.7420 33.2790 42° Northeast 503 579 38,000  Level FlightAware
06:39PM 33.7930 33.3570 52° Northeast 513 590 38,000  Level FlightAware
06:40PM 33.8500 33.4490 53° Northeast 514 592 38,000  Level FlightAware
06:40PM 33.8930 33.5200 54° Northeast 515 593 38,000  Level FlightAware
06:41PM 33.9420 33.5980 53° Northeast 515 593 38,000  Level FlightAware
06:41PM 33.9920 33.6800 54° Northeast 516 594 38,000  Level FlightAware
06:42PM 34.0510 33.7760 53° Northeast 517 595 38,000  Level FlightAware
06:43PM 34.0940 33.8470 54° Northeast 517 595 38,000  Level FlightAware
06:43PM 34.1430 33.9290 54° Northeast 517 595 38,000  Level FlightAware
06:44PM 34.1920 34.0110 54° Northeast 517 595 38,000  Level FlightAware
06:44PM 34.2480 34.1030 54° Northeast 517 595 38,000  Level FlightAware
06:45PM 34.2950 34.1810 54° Northeast 517 595 38,000  Level FlightAware
06:46PM 34.3450 34.2650 54° Northeast 519 597 38,000  Level FlightAware
06:46PM 34.3960 34.3500 54° Northeast 520 598 38,000  Level FlightAware
06:47PM 34.4460 34.4350 54° Northeast 521 600 38,000  Level FlightAware
06:47PM 34.4920 34.5120 54° Northeast 521 600 38,000  Level FlightAware
06:48PM 34.5400 34.5940 55° Northeast 521 600 38,000  Level FlightAware
06:49PM 34.5920 34.6810 54° Northeast 521 600 38,000  Level FlightAware
06:49PM 34.6410 34.7640 54° Northeast 521 600 38,000  Level FlightAware
06:50PM 34.6880 34.8440 54° Northeast 521 600 38,000  Level FlightAware
06:50PM 34.7350 34.9250 55° Northeast 521 600 38,000  Level FlightAware
06:51PM 34.7960 35.0300 55° Northeast 517 595 38,000  Level FlightAware
06:52PM 34.8540 35.1300 55° Northeast 523 602 38,000  Level FlightAware
06:52PM 34.8990 35.2070 55° Northeast 523 602 38,000  Level FlightAware
06:53PM 34.9690 35.3260 54° Northeast 520 598 38,000  Level FlightAware
06:54PM 35.0250 35.4230 55° Northeast 520 598 38,000  Level FlightAware
06:54PM 35.0810 35.5210 55° Northeast 520 598 38,000  Level FlightAware
06:55PM 35.1300 35.6070 55° Northeast 521 600 38,000  Level FlightAware
06:56PM 35.1760 35.7090 61° Northeast 523 602 38,000  Level FlightAware
06:56PM 35.2040 35.7900 67° East 528 608 38,000  Level FlightAware
06:57PM 35.2360 35.8930 69° East 525 604 38,000  Level FlightAware
06:57PM 35.2750 35.9890 64° Northeast 527 606 38,000  Level FlightAware
06:58PM 35.3250 36.0790 56° Northeast 520 598 38,000  Level FlightAware
06:59PM 35.3650 36.1450 53° Northeast 520 598 38,000  Level FlightAware
06:59PM 35.4370 36.2330 45° Northeast 523 602 38,000  Level FlightAware
07:00PM 35.4890 36.3010 47° Northeast 523 602 38,000  Level FlightAware
07:00PM 35.5660 36.4020 47° Northeast 519 597 38,000  Level FlightAware
07:01PM 35.6130 36.4650 47° Northeast 519 597 38,000  Level FlightAware
07:02PM 35.6890 36.5620 46° Northeast 520 598 38,000  Level FlightAware
07:02PM 35.7480 36.6400 47° Northeast 519 597 38,000  Level FlightAware
07:03PM 35.8070 36.7160 46° Northeast 519 597 38,000  Level FlightAware
07:03PM 35.8620 36.7880 47° Northeast 519 597 38,000  Level FlightAware
07:04PM 35.9390 36.8880 46° Northeast 524 603 38,000  Level FlightAware
07:05PM 35.9910 36.9540 46° Northeast 524 603 38,000  Level FlightAware
07:05PM 36.0420 37.0200 46° Northeast 524 603 38,000  Level FlightAware
07:06PM 36.0940 37.0860 46° Northeast 524 603 38,000  Level FlightAware
07:07PM 36.1450 37.1520 46° Northeast 524 603 38,000  Level FlightAware
07:07PM 36.2360 37.2190 31° Northeast 504 580 38,000  Level FlightAware
07:07PM 36.2990 37.2510 22° Northeast 498 573 38,000  Level FlightAware
07:08PM 36.4130 37.2930 17° North 503 579 38,000  Level FlightAware
07:09PM 36.4810 37.3190 17° North 506 582 38,000  Level FlightAware
07:09PM 36.5660 37.3510 17° North 507 583 38,000  Level FlightAware
07:10PM 36.6480 37.3820 17° North 499 574 38,000  Level FlightAware
07:11PM 36.7150 37.4040 15° North 497 572 38,000  Level FlightAware
07:11PM 36.7960 37.4280 13° North 496 571 38,000  Level FlightAware
07:12PM 36.8860 37.4600 16° North 510 587 38,000  Level FlightAware
07:12PM 36.9510 37.4950 23° Northeast 515 593 38,000  Level FlightAware
07:13PM 37.0220 37.5450 29° Northeast 515 593 38,000  Level FlightAware
07:14PM 37.1160 37.6310 36° Northeast 527 606 38,000  Level FlightAware
07:14PM 37.1760 37.6880 37° Northeast 527 606 38,000  Level FlightAware
07:15PM 37.2370 37.7450 37° Northeast 527 606 38,000  Level FlightAware
07:16PM 37.2970 37.8020 37° Northeast 527 606 38,000  Level FlightAware
07:16PM 37.3560 37.8580 37° Northeast 527 606 38,000  Level FlightAware
07:17PM 37.4160 37.9150 37° Northeast 527 606 38,000  Level FlightAware
07:17PM 37.4750 37.9710 37° Northeast 527 606 38,000  Level FlightAware
07:18PM 37.5350 38.0280 37° Northeast 527 606 38,000  Level FlightAware
07:19PM 37.5950 38.0850 37° Northeast 527 606 38,000  Level FlightAware
07:19PM 37.6540 38.1410 37° Northeast 527 606 38,000  Level FlightAware
07:20PM 37.7140 38.1980 37° Northeast 527 606 38,000  Level FlightAware
07:20PM 37.7750 38.2560 37° Northeast 527 606 38,000  Level FlightAware
07:21PM 37.8340 38.3130 37° Northeast 527 606 38,000  Level FlightAware
07:22PM 37.8960 38.3720 37° Northeast 527 606 38,000  Level FlightAware
07:22PM 37.9550 38.4290 37° Northeast 527 606 38,000  Level FlightAware
07:23PM 38.0150 38.4860 37° Northeast 527 606 38,000  Level FlightAware
07:25PM 38.1363 38.7366 58° Northeast  Level Estimated
07:26PM 38.2061 38.8816 58° Northeast  Level Estimated
07:27PM 38.2756 39.0268 59° Northeast  Level Estimated
07:28PM 38.3450 39.1723 59° Northeast  Level Estimated
07:29PM 38.4142 39.3181 59° Northeast  Level Estimated
07:30PM 38.4832 39.4642 59° Northeast  Level Estimated
07:31PM 38.5521 39.6106 59° Northeast  Level Estimated
07:32PM 38.6207 39.7572 59° Northeast  Level Estimated
07:33PM 38.6892 39.9041 59° Northeast  Level Estimated
07:34PM 38.7575 40.0513 59° Northeast  Level Estimated
07:35PM 38.8256 40.1988 59° Northeast  Level Estimated
07:36PM 38.8935 40.3466 59° Northeast  Level Estimated
07:37PM 38.9613 40.4946 59° Northeast  Level Estimated
07:38PM 39.0288 40.6429 60° Northeast  Level Estimated
07:39PM 39.0962 40.7915 60° Northeast  Level Estimated
07:40PM 39.1633 40.9404 60° Northeast  Level Estimated
07:41PM 39.2303 41.0896 60° Northeast  Level Estimated
07:42PM 39.2971 41.2391 60° Northeast  Level Estimated
07:43PM 39.3637 41.3888 60° Northeast  Level Estimated
07:44PM 39.4301 41.5389 60° Northeast  Level Estimated
07:45PM 39.4963 41.6892 60° Northeast  Level Estimated
07:46PM 39.5624 41.8398 60° Northeast  Level Estimated
07:47PM 39.6282 41.9907 60° Northeast  Level Estimated
07:48PM 39.6938 42.1419 61° Northeast  Level Estimated
07:49PM 39.7592 42.2933 61° Northeast  Level Estimated
07:50PM 39.8245 42.4451 61° Northeast  Level Estimated
07:51PM 39.8895 42.5971 61° Northeast  Level Estimated
07:52PM 39.9544 42.7495 61° Northeast  Level Estimated
07:53PM 40.0190 42.9021 61° Northeast  Level Estimated
07:54PM 40.0834 43.0550 61° Northeast  Level Estimated
07:55PM 40.1477 43.2082 61° Northeast  Level Estimated
07:56PM 40.2117 43.3617 61° Northeast  Level Estimated
07:57PM 40.2755 43.5154 61° Northeast  Level Estimated
07:58PM 40.3392 43.6695 62° Northeast  Level Estimated
07:58PM 40.2690 44.7600 62° Northeast 528 608 39,000  Level FlightAware
07:59PM 40.4026 43.8239 62° Northeast  Level Estimated
07:59PM 40.2930 44.9280 79° East 528 608 39,000  Level FlightAware
08:00PM 40.4658 43.9785 62° Northeast  Level Estimated
08:00PM 40.2920 44.9250 246° West 529 609 39,000  Level FlightAware
08:01PM 40.3330 45.2140 79° East 529 609 39,000  Level FlightAware
08:02PM 40.3520 45.3530 80° East 529 609 39,000  Level FlightAware
08:02PM 40.3650 45.4500 80° East 529 609 39,000  Level FlightAware
08:03PM 40.3780 45.5470 80° East 529 609 39,000  Level FlightAware
08:03PM 40.3910 45.6440 80° East 529 609 39,000  Level FlightAware
08:04PM 40.4040 45.7410 80° East 529 609 39,000  Level FlightAware
08:05PM 40.4170 45.8380 80° East 529 609 39,000  Level FlightAware
08:05PM 40.4300 45.9340 80° East 529 609 39,000  Level FlightAware
08:06PM 40.4430 46.0310 80° East 529 609 39,000  Level FlightAware
08:06PM 40.4560 46.1280 80° East 529 609 39,000  Level FlightAware
08:07PM 40.4690 46.2250 80° East 529 609 39,000  Level FlightAware
08:08PM 40.4820 46.3220 80° East 529 609 39,000  Level FlightAware
08:08PM 40.4950 46.4190 80° East 529 609 39,000  Level FlightAware
08:09PM 40.5080 46.5160 80° East 529 609 39,000  Level FlightAware
08:09PM 40.5210 46.6130 80° East 529 609 39,000  Level FlightAware
08:10PM 40.5340 46.7100 80° East 529 609 39,000  Level FlightAware
08:11PM 40.5470 46.8070 80° East 529 609 39,000  Level FlightAware
08:13PM 40.6568 47.0954 63° Northeast  Level Estimated
08:14PM 40.7163 47.2532 63° Northeast  Level Estimated
08:15PM 40.7757 47.4112 64° Northeast  Level Estimated
08:16PM 40.8348 47.5694 64° Northeast  Level Estimated
08:17PM 40.8937 47.7280 64° Northeast  Level Estimated
08:18PM 40.9524 47.8869 64° Northeast  Level Estimated
08:19PM 41.0109 48.0460 64° Northeast  Level Estimated
08:20PM 41.0692 48.2054 64° Northeast  Level Estimated
08:21PM 41.1272 48.3651 64° Northeast  Level Estimated
08:22PM 41.1851 48.5251 64° Northeast  Level Estimated
08:23PM 41.2427 48.6853 64° Northeast  Level Estimated
08:24PM 41.3000 48.8459 65° Northeast  Level Estimated
08:25PM 41.3572 49.0067 65° Northeast  Level Estimated
08:26PM 41.4141 49.1678 65° Northeast  Level Estimated
08:27PM 41.4708 49.3292 65° Northeast  Level Estimated
08:28PM 41.5273 49.4909 65° Northeast  Level Estimated
08:29PM 41.5836 49.6528 65° Northeast  Level Estimated
08:30PM 41.6396 49.8151 65° Northeast  Level Estimated
08:31PM 41.6954 49.9776 65° Northeast  Level Estimated
08:32PM 41.7510 50.1404 65° Northeast  Level Estimated
08:33PM 41.8063 50.3035 65° Northeast  Level Estimated
08:34PM 41.8614 50.4668 66° East  Level Estimated
08:35PM 41.9163 50.6305 66° East  Level Estimated
08:36PM 41.9709 50.7944 66° East  Level Estimated
08:37PM 42.0253 50.9586 66° East  Level Estimated
08:38PM 42.0795 51.1231 66° East  Level Estimated
08:39PM 42.1335 51.2879 66° East  Level Estimated
08:40PM 42.1872 51.4529 66° East  Level Estimated
08:41PM 42.2406 51.6182 66° East  Level Estimated
08:42PM 42.2939 51.7839 66° East  Level Estimated
08:43PM 42.3469 51.9497 67° East  Level Estimated
08:44PM 42.3996 52.1159 67° East  Level Estimated
08:45PM 42.4521 52.2823 67° East  Level Estimated
08:46PM 42.5044 52.4491 67° East  Level Estimated
08:47PM 42.5564 52.6161 67° East  Level Estimated
08:48PM 42.6082 52.7834 67° East  Level Estimated
08:49PM 42.6597 52.9509 67° East  Level Estimated
08:50PM 42.7110 53.1187 67° East  Level Estimated
08:51PM 42.7621 53.2868 67° East  Level Estimated
08:52PM 42.8129 53.4552 68° East  Level Estimated
08:53PM 42.8634 53.6239 68° East  Level Estimated
08:54PM 42.9137 53.7928 68° East  Level Estimated
08:55PM 42.9638 53.9621 68° East  Level Estimated
08:56PM 43.0136 54.1315 68° East  Level Estimated
08:57PM 43.0632 54.3013 68° East  Level Estimated
08:58PM 43.1125 54.4714 68° East  Level Estimated
08:59PM 43.1615 54.6417 68° East  Level Estimated
09:00PM 43.2104 54.8123 69° East  Level Estimated
09:01PM 43.2589 54.9831 69° East  Level Estimated
09:02PM 43.3072 55.1543 69° East  Level Estimated
09:03PM 43.3552 55.3256 69° East  Level Estimated
09:04PM 43.4030 55.4973 69° East  Level Estimated
09:05PM 43.4505 55.6693 69° East  Level Estimated
09:06PM 43.4978 55.8415 69° East  Level Estimated
09:07PM 43.5448 56.0140 69° East  Level Estimated
09:08PM 43.5916 56.1867 69° East  Level Estimated
09:09PM 43.6381 56.3597 70° East  Level Estimated
09:10PM 43.6843 56.5330 70° East  Level Estimated
09:11PM 43.7303 56.7066 70° East  Level Estimated
09:12PM 43.7760 56.8804 70° East  Level Estimated
09:13PM 43.8214 57.0545 70° East  Level Estimated
09:14PM 43.8666 57.2288 70° East  Level Estimated
09:15PM 43.9115 57.4034 70° East  Level Estimated
09:16PM 43.9561 57.5783 70° East  Level Estimated
09:17PM 44.0005 57.7534 71° East  Level Estimated
09:18PM 44.0446 57.9288 71° East  Level Estimated
09:19PM 44.0884 58.1045 71° East  Level Estimated
09:20PM 44.1320 58.2804 71° East  Level Estimated
09:21PM 44.1753 58.4566 71° East  Level Estimated
09:22PM 44.2183 58.6330 71° East  Level Estimated
09:23PM 44.2611 58.8097 71° East  Level Estimated
09:24PM 44.3036 58.9867 71° East  Level Estimated
09:25PM 44.3458 59.1639 72° East  Level Estimated
09:26PM 44.3877 59.3413 72° East  Level Estimated
09:27PM 44.4294 59.5190 72° East  Level Estimated
09:28PM 44.4707 59.6970 72° East  Level Estimated
09:29PM 44.5119 59.8752 72° East  Level Estimated
09:30PM 44.5527 60.0537 72° East  Level Estimated
09:31PM 44.5932 60.2324 72° East  Level Estimated
09:32PM 44.6335 60.4114 72° East  Level Estimated
09:33PM 44.6735 60.5906 73° East  Level Estimated
09:34PM 44.7132 60.7700 73° East  Level Estimated
09:35PM 44.7526 60.9497 73° East  Level Estimated
09:36PM 44.7918 61.1297 73° East  Level Estimated
09:37PM 44.8307 61.3099 73° East  Level Estimated
09:38PM 44.8692 61.4903 73° East  Level Estimated
09:39PM 44.9075 61.6710 73° East  Level Estimated
09:40PM 44.9455 61.8519 73° East  Level Estimated
09:41PM 44.9833 62.0331 74° East  Level Estimated
09:42PM 45.0207 62.2145 74° East  Level Estimated
09:43PM 45.0579 62.3961 74° East  Level Estimated
09:44PM 45.0947 62.5780 74° East  Level Estimated
09:45PM 45.1313 62.7601 74° East  Level Estimated
09:46PM 45.1676 62.9424 74° East  Level Estimated
09:47PM 45.2036 63.1250 74° East  Level Estimated
09:48PM 45.2393 63.3078 74° East  Level Estimated
09:49PM 45.2747 63.4908 75° East  Level Estimated
09:50PM 45.3098 63.6740 75° East  Level Estimated
09:51PM 45.3446 63.8575 75° East  Level Estimated
09:52PM 45.3791 64.0412 75° East  Level Estimated
09:53PM 45.4134 64.2251 75° East  Level Estimated
09:54PM 45.4473 64.4093 75° East  Level Estimated
09:55PM 45.4810 64.5936 75° East  Level Estimated
09:56PM 45.5143 64.7782 75° East  Level Estimated
09:57PM 45.5474 64.9630 76° East  Level Estimated
09:58PM 45.5801 65.1480 76° East  Level Estimated
09:59PM 45.6126 65.3333 76° East  Level Estimated
10:00PM 45.6447 65.5187 76° East  Level Estimated
10:01PM 45.6766 65.7044 76° East  Level Estimated
10:02PM 45.7081 65.8903 76° East  Level Estimated
10:03PM 45.7394 66.0763 76° East  Level Estimated
10:04PM 45.7703 66.2626 77° East  Level Estimated
10:05PM 45.8009 66.4491 77° East  Level Estimated
10:06PM 45.8313 66.6358 77° East  Level Estimated
10:07PM 45.8613 66.8227 77° East  Level Estimated
10:08PM 45.8911 67.0098 77° East  Level Estimated
10:09PM 45.9205 67.1971 77° East  Level Estimated
10:10PM 45.9496 67.3846 77° East  Level Estimated
10:11PM 45.9784 67.5723 77° East  Level Estimated
10:12PM 46.0069 67.7602 78° East  Level Estimated
10:13PM 46.0351 67.9483 78° East  Level Estimated
10:14PM 46.0630 68.1366 78° East  Level Estimated
10:15PM 46.0906 68.3250 78° East  Level Estimated
10:16PM 46.1179 68.5137 78° East  Level Estimated
10:17PM 46.1448 68.7025 78° East  Level Estimated
10:18PM 46.1715 68.8915 78° East  Level Estimated
10:19PM 46.1978 69.0807 79° East  Level Estimated
10:20PM 46.2238 69.2701 79° East  Level Estimated
10:21PM 46.2495 69.4597 79° East  Level Estimated
10:22PM 46.2749 69.6494 79° East  Level Estimated
10:23PM 46.3000 69.8393 79° East  Level Estimated
10:24PM 46.3248 70.0294 79° East  Level Estimated
10:25PM 46.3492 70.2197 79° East  Level Estimated
10:26PM 46.3733 70.4101 80° East  Level Estimated
10:27PM 46.3972 70.6007 80° East  Level Estimated
10:28PM 46.4207 70.7915 80° East  Level Estimated
10:29PM 46.4438 70.9824 80° East  Level Estimated
10:30PM 46.4667 71.1735 80° East  Level Estimated
10:31PM 46.4893 71.3647 80° East  Level Estimated
10:32PM 46.5115 71.5561 80° East  Level Estimated
10:33PM 46.5334 71.7477 80° East  Level Estimated
10:34PM 46.5550 71.9394 81° East  Level Estimated
10:35PM 46.5763 72.1312 81° East  Level Estimated
10:36PM 46.5972 72.3232 81° East  Level Estimated
10:37PM 46.6178 72.5154 81° East  Level Estimated
10:38PM 46.6381 72.7077 81° East  Level Estimated
10:39PM 46.6581 72.9001 81° East  Level Estimated
10:40PM 46.6778 73.0927 81° East  Level Estimated
10:41PM 46.6971 73.2855 82° East  Level Estimated
10:42PM 46.7161 73.4783 82° East  Level Estimated
10:42PM 47.3990 76.2160 82° East 512 589 39,000  Level FlightAware
10:42PM 47.3880 76.3300 98° East 514 592 39,000  Level FlightAware
10:43PM 46.7348 73.6713 82° East  Level Estimated
10:43PM 47.3750 76.4740 98° East 514 592 39,000  Level FlightAware
10:44PM 47.3620 76.6010 99° East 515 593 39,000  Level FlightAware
10:44PM 47.3500 76.7180 99° East 517 595 39,000  Level FlightAware
10:45PM 47.3380 76.8420 98° East 518 596 39,000  Level FlightAware
10:46PM 47.3250 76.9650 99° East 520 598 39,000  Level FlightAware
10:46PM 47.3140 77.0980 97° East 525 604 39,000  Level FlightAware
10:47PM 47.3080 77.2110 94° East 526 605 39,000  Level FlightAware
10:47PM 47.3010 77.3380 95° East 527 606 39,000  Level FlightAware
10:48PM 47.2940 77.4690 94° East 528 608 39,000  Level FlightAware
10:49PM 47.2860 77.6100 95° East 528 608 39,000  Level FlightAware
10:49PM 47.2800 77.7430 94° East 528 608 39,000  Level FlightAware
10:50PM 47.2700 77.8820 96° East 528 608 39,000  Level FlightAware
10:50PM 47.2620 78.0060 95° East 527 606 39,000  Level FlightAware
10:51PM 47.2550 78.1220 95° East 526 605 39,000  Level FlightAware
10:52PM 47.2460 78.2650 95° East 527 606 39,000  Level FlightAware
10:52PM 47.2390 78.3720 95° East 528 608 39,000  Level FlightAware
10:53PM 47.2330 78.4940 94° East 528 608 39,000  Level FlightAware
10:53PM 47.2280 78.6040 94° East 528 608 39,000  Level FlightAware
10:54PM 47.2230 78.7130 94° East 528 608 39,000  Level FlightAware
10:55PM 47.2180 78.8230 94° East 528 608 39,000  Level FlightAware
10:55PM 47.1970 79.0430 98° East 528 608 39,000  Level FlightAware
10:56PM 47.1910 79.1530 95° East 528 608 39,000  Level FlightAware
10:57PM 47.1840 79.2620 95° East 528 608 39,000  Level FlightAware
10:57PM 47.1770 79.3720 95° East 528 608 39,000  Level FlightAware
10:58PM 47.1710 79.4840 94° East 528 608 39,000  Level FlightAware
10:58PM 47.1640 79.5940 95° East 528 608 39,000  Level FlightAware
10:59PM 47.1580 79.7040 95° East 528 608 39,000  Level FlightAware
11:00PM 47.1510 79.8130 95° East 528 608 39,000  Level FlightAware
11:00PM 47.1450 79.9230 95° East 528 608 39,000  Level FlightAware
11:01PM 47.1380 80.0320 95° East 528 608 39,000  Level FlightAware
11:01PM 47.1320 80.1410 95° East 528 608 39,000  Level FlightAware
11:02PM 47.1250 80.2540 95° East 528 608 39,000  Level FlightAware
11:03PM 47.1180 80.3630 95° East 528 608 39,000  Level FlightAware
11:03PM 47.1120 80.4730 95° East 528 608 39,000  Level FlightAware
11:04PM 47.1050 80.5820 95° East 528 608 39,000  Level FlightAware
11:04PM 47.0990 80.6920 95° East 528 608 39,000  Level FlightAware
11:07PM 47.1130 81.1168 87° East  Level Estimated
11:08PM 47.1190 81.3130 87° East  Level Estimated
11:09PM 47.1246 81.5091 88° East  Level Estimated
11:10PM 47.1299 81.7054 88° East  Level Estimated
11:11PM 47.1348 81.9016 88° East  Level Estimated
11:12PM 47.1394 82.0980 88° East  Level Estimated
11:13PM 47.1437 82.2943 88° East  Level Estimated
11:14PM 47.1476 82.4906 88° East  Level Estimated
11:15PM 47.1512 82.6870 88° East  Level Estimated
11:16PM 47.1545 82.8835 89° East  Level Estimated
11:17PM 47.1574 83.0799 89° East  Level Estimated
11:18PM 47.1600 83.2764 89° East  Level Estimated
11:19PM 47.1623 83.4728 89° East  Level Estimated
11:20PM 47.1642 83.6693 89° East  Level Estimated
11:21PM 47.1657 83.8658 89° East  Level Estimated
11:22PM 47.1670 84.0623 89° East  Level Estimated
11:23PM 47.1679 84.2589 90° East  Level Estimated
11:24PM 47.1685 84.4554 90° East  Level Estimated
11:25PM 47.1687 84.6519 90° East  Level Estimated
11:26PM 47.1686 84.8485 90° East  Level Estimated
11:27PM 47.1682 85.0450 90° East  Level Estimated
11:28PM 47.1674 85.2415 90° East  Level Estimated
11:29PM 47.1663 85.4380 90° East  Level Estimated
11:30PM 47.1649 85.6346 91° East  Level Estimated
11:31PM 47.1631 85.8310 91° East  Level Estimated
11:32PM 47.1610 86.0275 91° East  Level Estimated
11:33PM 47.1585 86.2240 91° East  Level Estimated
11:34PM 47.1558 86.4204 91° East  Level Estimated
11:35PM 47.1526 86.6169 91° East  Level Estimated
11:36PM 47.1492 86.8133 91° East  Level Estimated
11:37PM 47.1454 87.0097 92° East  Level Estimated
11:38PM 47.1413 87.2060 92° East  Level Estimated
11:39PM 47.1368 87.4023 92° East  Level Estimated
11:40PM 47.1320 87.5986 92° East  Level Estimated
11:41PM 47.1269 87.7948 92° East  Level Estimated
11:42PM 47.1214 87.9910 92° East  Level Estimated
11:43PM 47.1156 88.1872 92° East  Level Estimated
11:44PM 47.1095 88.3833 93° East  Level Estimated
11:45PM 47.1030 88.5794 93° East  Level Estimated
11:46PM 47.0962 88.7754 93° East  Level Estimated
11:47PM 47.0890 88.9714 93° East  Level Estimated
11:48PM 47.0816 89.1673 93° East  Level Estimated
11:49PM 47.0737 89.3632 93° East  Level Estimated
11:50PM 47.0656 89.5590 93° East  Level Estimated
11:51PM 47.0571 89.7547 94° East  Level Estimated
11:52PM 47.0483 89.9504 94° East  Level Estimated
11:53PM 47.0392 90.1460 94° East  Level Estimated
11:54PM 47.0297 90.3415 94° East  Level Estimated
11:55PM 47.0199 90.5370 94° East  Level Estimated
11:56PM 47.0097 90.7324 94° East  Level Estimated
11:57PM 46.9993 90.9277 94° East  Level Estimated
11:58PM 46.9885 91.1230 95° East  Level Estimated
11:59PM 46.9773 91.3182 95° East  Level Estimated
12:00AM 46.9659 91.5133 95° East  Level Estimated
12:01AM 46.9540 91.7083 95° East  Level Estimated
12:02AM 46.9419 91.9032 95° East  Level Estimated
12:03AM 46.9295 92.0980 95° East  Level Estimated
12:04AM 46.9167 92.2927 95° East  Level Estimated
12:05AM 46.9035 92.4874 96° East  Level Estimated
12:06AM 46.8901 92.6819 96° East  Level Estimated
12:07AM 46.8763 92.8763 96° East  Level Estimated
12:08AM 46.8622 93.0707 96° East  Level Estimated
12:09AM 46.8478 93.2649 96° East  Level Estimated
12:10AM 46.8330 93.4590 96° East  Level Estimated
12:11AM 46.8179 93.6531 96° East  Level Estimated
12:12AM 46.8025 93.8470 97° East  Level Estimated
12:13AM 46.7867 94.0408 97° East  Level Estimated
12:14AM 46.7706 94.2345 97° East  Level Estimated
12:15AM 46.7542 94.4280 97° East  Level Estimated
12:16AM 46.7375 94.6215 97° East  Level Estimated
12:17AM 46.7205 94.8148 97° East  Level Estimated
12:18AM 46.7031 95.0080 97° East  Level Estimated
12:19AM 46.6854 95.2011 98° East  Level Estimated
12:20AM 46.6673 95.3941 98° East  Level Estimated
12:21AM 46.6490 95.5869 98° East  Level Estimated
12:22AM 46.6303 95.7796 98° East  Level Estimated
12:23AM 46.6113 95.9721 98° East  Level Estimated
12:24AM 46.5920 96.1646 98° East  Level Estimated
12:25AM 46.5723 96.3568 98° East  Level Estimated
12:26AM 46.5523 96.5490 99° East  Level Estimated
12:27AM 46.5321 96.7410 99° East  Level Estimated
12:28AM 46.5115 96.9328 99° East  Level Estimated
12:29AM 46.4905 97.1245 99° East  Level Estimated
12:30AM 46.4693 97.3161 99° East  Level Estimated
12:31AM 46.4477 97.5075 99° East  Level Estimated
12:32AM 46.4258 97.6988 99° East  Level Estimated
12:33AM 46.4036 97.8899 99° East  Level Estimated
12:34AM 46.3811 98.0808 100° East  Level Estimated
12:35AM 46.3582 98.2716 100° East  Level Estimated
12:36AM 46.3351 98.4622 100° East  Level Estimated
12:37AM 46.3116 98.6527 100° East  Level Estimated
12:38AM 46.2878 98.8430 100° East  Level Estimated
12:39AM 46.2637 99.0331 100° East  Level Estimated
12:40AM 46.2392 99.2231 100° East  Level Estimated
12:41AM 46.2145 99.4129 101° East  Level Estimated
12:42AM 46.1894 99.6025 101° East  Level Estimated
12:43AM 46.1641 99.7920 101° East  Level Estimated
12:44AM 46.1384 99.9813 101° East  Level Estimated
12:45AM 46.1124 100.1704 101° East  Level Estimated
12:46AM 46.0861 100.3593 101° East  Level Estimated
12:47AM 46.0595 100.5480 101° East  Level Estimated
12:48AM 46.0326 100.7366 102° East  Level Estimated
12:49AM 46.0053 100.9249 102° East  Level Estimated
12:50AM 45.9778 101.1131 102° East  Level Estimated
12:51AM 45.9500 101.3011 102° East  Level Estimated
12:52AM 45.9218 101.4889 102° East  Level Estimated
12:53AM 45.8933 101.6765 102° East  Level Estimated
12:54AM 45.8646 101.8639 102° East  Level Estimated
12:55AM 45.8355 102.0512 103° East  Level Estimated
12:56AM 45.8061 102.2382 103° East  Level Estimated
12:57AM 45.7764 102.4250 103° East  Level Estimated
12:58AM 45.7464 102.6116 103° East  Level Estimated
12:59AM 45.7161 102.7981 103° East  Level Estimated
01:00AM 45.6855 102.9843 103° East  Level Estimated
01:01AM 45.6546 103.1703 103° East  Level Estimated
01:02AM 45.6234 103.3561 103° East  Level Estimated
01:03AM 45.5919 103.5417 104° East  Level Estimated
01:04AM 45.5601 103.7271 104° East  Level Estimated
01:05AM 45.5280 103.9123 104° East  Level Estimated
01:06AM 45.4956 104.0973 104° East  Level Estimated
01:07AM 45.4629 104.2821 104° East  Level Estimated
01:08AM 45.4299 104.4666 104° East  Level Estimated
01:09AM 45.3966 104.6509 104° East  Level Estimated
01:10AM 45.3630 104.8351 104° East  Level Estimated
01:11AM 45.3291 105.0190 105° East  Level Estimated
01:12AM 45.2949 105.2026 105° East  Level Estimated
01:13AM 45.2604 105.3861 105° East  Level Estimated
01:14AM 45.2257 105.5693 105° East  Level Estimated
01:15AM 45.1906 105.7523 105° East  Level Estimated
01:16AM 45.1553 105.9351 105° East  Level Estimated
01:17AM 45.1196 106.1176 105° East  Level Estimated
01:18AM 45.0837 106.2999 106° East  Level Estimated
01:19AM 45.0474 106.4820 106° East  Level Estimated
01:20AM 45.0109 106.6639 106° East  Level Estimated
01:21AM 44.9741 106.8455 106° East  Level Estimated
01:22AM 44.9370 107.0269 106° East  Level Estimated
01:23AM 44.8997 107.2080 106° East  Level Estimated
01:24AM 44.8620 107.3890 106° East  Level Estimated
01:25AM 44.8240 107.5696 106° East  Level Estimated
01:26AM 44.7858 107.7501 107° East  Level Estimated
01:27AM 44.7473 107.9303 107° East  Level Estimated
01:28AM 44.7085 108.1102 107° East  Level Estimated
01:29AM 44.6694 108.2900 107° East  Level Estimated
01:30AM 44.6301 108.4694 107° East  Level Estimated
01:31AM 44.5904 108.6487 107° East  Level Estimated
01:32AM 44.5505 108.8277 107° East  Level Estimated
01:33AM 44.5103 109.0064 107° East  Level Estimated
01:34AM 44.4698 109.1849 108° East  Level Estimated
01:35AM 44.4291 109.3631 108° East  Level Estimated
01:36AM 44.3880 109.5411 108° East  Level Estimated
01:37AM 44.3467 109.7189 108° East  Level Estimated
01:38AM 44.3051 109.8964 108° East  Level Estimated
01:39AM 44.2632 110.0736 108° East  Level Estimated
01:40AM 44.2211 110.2506 108° East  Level Estimated
01:41AM 44.1787 110.4273 108° East  Level Estimated
01:42AM 44.1360 110.6038 109° East  Level Estimated
01:43AM 44.0931 110.7800 109° East  Level Estimated
01:44AM 44.0499 110.9560 109° East  Level Estimated
01:45AM 44.0064 111.1317 109° East  Level Estimated
01:46AM 43.9626 111.3072 109° East  Level Estimated
01:47AM 43.9186 111.4824 109° East  Level Estimated
01:48AM 43.8743 111.6573 109° East  Level Estimated
01:49AM 43.8297 111.8319 109° East  Level Estimated
01:50AM 43.7849 112.0064 110° East  Level Estimated
01:51AM 43.7398 112.1805 110° East  Level Estimated
01:52AM 43.6944 112.3544 110° East  Level Estimated
01:53AM 43.6488 112.5280 110° East  Level Estimated
01:54AM 43.6029 112.7014 110° East  Level Estimated
01:55AM 43.5568 112.8745 110° East  Level Estimated
01:56AM 43.5104 113.0473 110° East  Level Estimated
01:57AM 43.4637 113.2199 110° East  Level Estimated
01:58AM 43.4168 113.3922 111° Southeast  Level Estimated
01:59AM 43.3696 113.5642 111° Southeast  Level Estimated
02:00AM 43.3222 113.7359 111° Southeast  Level Estimated
02:01AM 43.2745 113.9074 111° Southeast  Level Estimated
02:02AM 43.2265 114.0787 111° Southeast  Level Estimated
02:03AM 43.1783 114.2496 111° Southeast  Level Estimated
02:04AM 43.1299 114.4203 111° Southeast  Level Estimated
02:05AM 43.0812 114.5907 111° Southeast  Level Estimated
02:06AM 43.0322 114.7608 111° Southeast  Level Estimated
02:07AM 42.9830 114.9307 112° Southeast  Level Estimated
02:08AM 42.9335 115.1003 112° Southeast  Level Estimated
02:09AM 42.8838 115.2696 112° Southeast  Level Estimated
02:10AM 42.8338 115.4387 112° Southeast  Level Estimated
02:11AM 42.7836 115.6074 112° Southeast  Level Estimated
02:12AM 42.7331 115.7759 112° Southeast  Level Estimated
02:13AM 42.6824 115.9442 112° Southeast  Level Estimated
02:14AM 42.6315 116.1121 112° Southeast  Level Estimated
02:15AM 42.5802 116.2798 112° Southeast  Level Estimated
02:16AM 42.5288 116.4472 113° Southeast  Level Estimated
02:17AM 42.4771 116.6143 113° Southeast  Level Estimated
02:17AM 40.3370 116.2630 113° Southeast 531 611 41,100  Level FlightAware
02:18AM 42.4252 116.7811 113° Southeast  Level Estimated
02:18AM 40.3350 116.4100 91° East 532 612 41,100  Level FlightAware
02:18AM 40.3330 116.5300 91° East 532 612 41,100  Level FlightAware
02:19AM 40.3310 116.6580 91° East 534 615 41,100  Level FlightAware
02:19AM 40.3300 116.7590 91° East 534 615 41,100  Level FlightAware
02:20AM 40.2960 116.8630 113° Southeast 653 751 41,100 -60 Level FlightAware
02:23AM 40.1976 117.3056 106° East  Level Estimated
02:24AM 40.1599 117.4733 106° East  Level Estimated
02:25AM 40.1218 117.6409 106° East  Level Estimated
02:26AM 40.0835 117.8082 107° East  Level Estimated
02:27AM 40.0450 117.9754 107° East  Level Estimated
02:28AM 40.0062 118.1424 107° East  Level Estimated
02:29AM 39.9673 118.3092 107° East  Level Estimated
02:30AM 39.9280 118.4758 107° East  Level Estimated
02:31AM 39.8885 118.6422 107° East  Level Estimated
02:32AM 39.8488 118.8084 107° East  Level Estimated
02:33AM 39.8089 118.9744 107° East  Level Estimated
02:34AM 39.7687 119.1403 107° East  Level Estimated
02:35AM 39.7283 119.3059 108° East  Level Estimated
02:36AM 39.6876 119.4713 108° East  Level Estimated
02:37AM 39.6467 119.6366 108° East  Level Estimated
02:38AM 39.6056 119.8016 108° East  Level Estimated
02:39AM 39.5643 119.9665 108° East  Level Estimated
02:40AM 39.5227 120.1311 108° East  Level Estimated
02:41AM 39.4808 120.2956 108° East  Level Estimated
02:42AM 39.4388 120.4599 108° East  Level Estimated
02:43AM 39.3965 120.6239 108° East  Level Estimated
02:44AM 39.3540 120.7878 109° East  Level Estimated
02:45AM 39.3113 120.9514 109° East  Level Estimated
02:46AM 39.2683 121.1149 109° East  Level Estimated
02:47AM 39.2251 121.2782 109° East  Level Estimated
02:48AM 39.1817 121.4412 109° East  Level Estimated
02:49AM 39.1380 121.6041 109° East  Level Estimated
02:50AM 39.0941 121.7667 109° East  Level Estimated
02:51AM 39.0500 121.9292 109° East  Level Estimated
02:52AM 39.0057 122.0914 109° East  Level Estimated
02:53AM 38.9611 122.2535 109° East  Level Estimated
02:54AM 38.9163 122.4153 110° East  Level Estimated
02:55AM 38.8713 122.5770 110° East  Level Estimated
02:56AM 38.8261 122.7384 110° East  Level Estimated
02:57AM 38.7807 122.8996 110° East  Level Estimated
02:58AM 38.7350 123.0607 110° East  Level Estimated
02:59AM 38.6891 123.2215 110° East  Level Estimated
03:00AM 38.6430 123.3821 110° East  Level Estimated
03:01AM 38.5967 123.5425 110° East  Level Estimated
03:02AM 38.5501 123.7027 110° East  Level Estimated
03:03AM 38.5033 123.8627 110° East  Level Estimated
03:04AM 38.4564 124.0224 111° Southeast  Level Estimated
03:05AM 38.4092 124.1820 111° Southeast  Level Estimated
03:06AM 38.3617 124.3414 111° Southeast  Level Estimated
03:07AM 38.3141 124.5005 111° Southeast  Level Estimated
03:08AM 38.2663 124.6595 111° Southeast  Level Estimated
03:09AM 38.2182 124.8182 111° Southeast  Level Estimated
03:10AM 38.1699 124.9767 111° Southeast  Level Estimated
03:11AM 38.1214 125.1350 111° Southeast  Level Estimated
03:12AM 38.0727 125.2931 111° Southeast  Level Estimated
03:13AM 38.0238 125.4510 111° Southeast  Level Estimated
03:14AM 37.9747 125.6087 112° Southeast  Level Estimated
03:15AM 37.9254 125.7662 112° Southeast  Level Estimated
03:16AM 37.8758 125.9234 112° Southeast  Level Estimated
03:17AM 37.8261 126.0805 112° Southeast  Level Estimated
03:18AM 37.7761 126.2373 112° Southeast  Level Estimated
03:19AM 37.7260 126.3939 112° Southeast  Level Estimated
03:20AM 37.6756 126.5503 112° Southeast  Level Estimated
03:21AM 37.6250 126.7065 112° Southeast  Level Estimated
03:22AM 37.5742 126.8625 112° Southeast  Level Estimated
03:23AM 37.5232 127.0183 112° Southeast  Level Estimated
03:23AM 37.2130 126.8860 112° Southeast 527 606 41,000  Level FlightAware
03:24AM 37.4720 127.1738 112° Southeast  Level Estimated
03:24AM 37.2130 126.8210 270° West 523 602 41,000  Level FlightAware
03:24AM 37.2130 126.8210 270° West 522 601 41,000  Level FlightAware
03:25AM 37.2380 126.9130 71° East 522 601 41,000  Level FlightAware
03:25AM 37.2300 126.8810 253° West 522 601 41,000  Level FlightAware
03:26AM 37.2130 126.8210 250° West 509 586 41,000  Level FlightAware
03:26AM 37.4320 127.3730 63° Northeast 508 585 41,000  Level FlightAware
03:27AM 37.4160 127.3500 229° Southwest 508 585 41,000  Level FlightAware
03:27AM 37.4630 127.4190 49° Northeast 508 585 41,000  Level FlightAware
03:28AM 37.5120 127.4890 49° Northeast 508 585 41,000  Level FlightAware
03:29AM 37.5590 127.5570 49° Northeast 508 585 41,000  Level FlightAware
03:29AM 37.6060 127.6260 49° Northeast 508 585 41,000  Level FlightAware
03:30AM 37.6530 127.6940 49° Northeast 508 585 41,000  Level FlightAware
03:30AM 37.7000 127.7630 49° Northeast 508 585 41,000  Level FlightAware
03:31AM 37.7480 127.8320 49° Northeast 508 585 41,000  Level FlightAware
03:32AM 37.7950 127.9000 49° Northeast 508 585 41,000  Level FlightAware
03:32AM 37.8420 127.9690 49° Northeast 508 585 41,000  Level FlightAware
03:33AM 37.8890 128.0380 49° Northeast 508 585 41,000  Level FlightAware
03:33AM 37.9360 128.1070 49° Northeast 508 585 41,000  Level FlightAware
03:34AM 37.9840 128.1750 48° Northeast 508 585 41,000  Level FlightAware
03:35AM 38.0310 128.2440 49° Northeast 508 585 41,000  Level FlightAware
03:35AM 38.0940 128.3360 49° Northeast 508 585 41,000  Level FlightAware
03:36AM 38.1420 128.4070 49° Northeast 508 585 41,000  Level FlightAware
03:39AM 37.9708 128.7547 122° Southeast  Level Estimated
03:40AM 37.8996 128.8981 122° Southeast  Level Estimated
03:41AM 37.8283 129.0412 122° Southeast  Level Estimated
03:42AM 37.7568 129.1840 122° Southeast  Level Estimated
03:43AM 37.6851 129.3266 122° Southeast  Level Estimated
03:44AM 37.6133 129.4688 122° Southeast  Level Estimated
03:45AM 37.5413 129.6109 123° Southeast  Level Estimated
03:46AM 37.4691 129.7526 123° Southeast  Level Estimated
03:47AM 37.3967 129.8940 123° Southeast  Level Estimated
03:47AM 36.6400 130.9070 123° Southeast 518 596 41,000  Level FlightAware
03:48AM 36.6020 130.9820 122° Southeast 517 595 41,000  Level FlightAware
03:48AM 36.5510 131.0820 122° Southeast 520 598 41,000  Level FlightAware
03:49AM 36.5050 131.1730 122° Southeast 517 595 41,000  Level FlightAware
03:50AM 36.4590 131.2620 123° Southeast 518 596 41,000  Level FlightAware
03:50AM 36.4070 131.3620 123° Southeast 518 596 41,000  Level FlightAware
03:51AM 36.3620 131.4490 123° Southeast 519 597 41,000  Level FlightAware
03:51AM 36.3180 131.5390 121° Southeast 524 603 41,000  Level FlightAware
03:52AM 36.2730 131.6290 122° Southeast 524 603 41,000 -480 Level FlightAware
03:53AM 36.2290 131.7180 121° Southeast 527 606 40,500 -960 Descending FlightAware
03:53AM 36.1840 131.8090 121° Southeast 527 606 39,900 -1,080 Descending FlightAware
03:54AM 36.1400 131.8970 122° Southeast 527 606 39,300 -1,080 Descending FlightAware
03:54AM 36.0930 131.9890 122° Southeast 524 603 38,700 -960 Descending FlightAware
03:55AM 36.0490 132.0770 122° Southeast 525 604 38,200 -960 Descending FlightAware
03:55AM 36.0040 132.1660 122° Southeast 521 600 37,600 -1,080 Descending FlightAware
03:56AM 35.9600 132.2530 122° Southeast 520 598 37,000 -960 Descending FlightAware
03:57AM 35.9150 132.3430 122° Southeast 521 600 36,500 -960 Descending FlightAware
03:57AM 35.8700 132.4310 122° Southeast 520 598 35,900 -1,080 Descending FlightAware
03:58AM 35.8250 132.5180 123° Southeast 518 596 35,300 -1,080 Descending FlightAware
03:58AM 35.7810 132.6050 122° Southeast 512 589 34,700 -1,680 Descending FlightAware
03:59AM 35.7330 132.6900 125° Southeast 534 615 33,400 -1,740 Descending FlightAware
04:00AM 35.6820 132.7800 125° Southeast 566 651 32,700 -1,080 Descending FlightAware
04:00AM 35.6280 132.8730 126° Southeast 567 652 32,200 -1,080 Descending FlightAware
04:01AM 35.5630 132.9880 125° Southeast 560 644 31,300 -1,680 Descending FlightAware
04:01AM 35.5100 133.0790 126° Southeast 544 626 30,000 -2,220 Descending FlightAware
04:02AM 35.4660 133.1550 125° Southeast 535 616 28,900 -2,160 Descending FlightAware
04:03AM 35.4160 133.2420 125° Southeast 530 610 27,700 -2,100 Descending FlightAware
04:03AM 35.3600 133.3380 126° Southeast 514 592 26,300 -2,160 Descending FlightAware
04:04AM 35.3110 133.4220 126° Southeast 507 583 25,000 -2,040 Descending FlightAware
04:05AM 35.2490 133.5290 125° Southeast 492 566 23,500 -2,040 Descending FlightAware
04:05AM 35.1940 133.6230 126° Southeast 478 550 22,100 -1,920 Descending FlightAware
04:06AM 35.1500 133.6980 126° Southeast 467 537 21,100 -1,740 Descending FlightAware
04:07AM 35.0920 133.7960 126° Southeast 450 518 19,700 -1,740 Descending FlightAware
04:07AM 35.0490 133.8700 125° Southeast 444 511 18,700 -1,800 Descending FlightAware
04:08AM 35.0020 133.9490 126° Southeast 428 493 17,500 -1,740 Descending FlightAware
04:08AM 34.9670 134.0080 126° Southeast 419 482 16,700 -1,560 Descending FlightAware
04:09AM 34.9430 134.0420 131° Southeast 418 481 16,200 -1,440 Descending FlightAware
04:09AM 34.9250 134.0560 147° Southeast 404 465 16,000 -480 Descending FlightAware
04:09AM 34.9000 134.0660 162° South 396 456 16,000  Level FlightAware
04:10AM 34.8440 134.0760 172° South 405 466 16,000  Level FlightAware
04:10AM 34.7700 134.0900 171° South 408 470 16,000 -300 Level FlightAware
04:11AM 34.7040 134.1030 171° South 405 466 15,700 -720 Descending FlightAware
04:11AM 34.6400 134.1170 170° South 395 455 15,200 -960 Descending FlightAware
04:12AM 34.5780 134.1310 169° South 378 435 14,600 -900 Descending FlightAware
04:13AM 34.5190 134.1430 170° South 358 412 14,200 -600 Descending FlightAware
04:13AM 34.4690 134.1550 169° South 328 377 13,900 -840 Descending FlightAware
04:14AM 34.4110 134.1670 170° South 324 373 13,200 -1,140 Descending FlightAware
04:14AM 34.3560 134.1860 164° South 323 372 12,500 -1,260 Descending FlightAware
04:15AM 34.3470 134.1920 151° Southeast 320 368 11,600 -1,380 Descending FlightAware
04:16AM 34.2790 134.2490 145° Southeast 321 369 11,100 -1,320 Descending FlightAware
04:16AM 34.2730 134.2650 114° Southeast 324 373 10,900 -1,200 Descending FlightAware
04:16AM 34.2640 134.3280 100° East 321 369 10,200 -1,200 Descending FlightAware
04:17AM 34.2660 134.3530 84° East 322 371 9,900 -1,080 Descending FlightAware
04:17AM 34.2700 134.3900 83° East 316 364 9,600 -960 Descending FlightAware
04:17AM 34.2730 134.4300 85° East 313 360 9,200 -1,200 Descending FlightAware
04:18AM 34.2990 134.4940 64° Northeast 309 356 8,300 -1,440 Descending FlightAware
04:18AM 34.3130 134.5250 61° Northeast 310 357 7,800 -1,380 Descending FlightAware
04:19AM 34.3230 134.5480 62° Northeast 308 354 7,500 -900 Descending FlightAware
04:19AM 34.3360 134.5780 62° Northeast 299 344 7,300 -480 Descending FlightAware
04:19AM 34.3490 134.6080 62° Northeast 288 331 7,200 -180 Descending FlightAware
04:19AM 34.3580 134.6290 63° Northeast 276 318 7,200 120 Level FlightAware
04:20AM 34.3690 134.6550 63° Northeast 255 293 7,300 120 Climbing FlightAware
04:20AM 34.3800 134.6790 61° Northeast 248 285 7,300 -300 Level FlightAware
04:20AM 34.3910 134.7040 62° Northeast 247 284 7,100 -840 Descending FlightAware
04:21AM 34.4050 134.7360 62° Northeast 251 289 6,700 -1,080 Descending FlightAware
04:21AM 34.4100 134.7480 63° Northeast 249 287 6,500 -900 Descending FlightAware
04:21AM 34.4230 134.7780 62° Northeast 247 284 6,200 -720 Descending FlightAware
04:22AM 34.4340 134.8030 62° Northeast 242 278 6,000 -780 Descending FlightAware
04:22AM 34.4440 134.8280 64° Northeast 245 282 5,700 -780 Descending FlightAware
04:22AM 34.4540 134.8500 61° Northeast 241 277 5,500 -660 Descending FlightAware
04:23AM 34.4680 134.8810 61° Northeast 234 269 5,200 -840 Descending FlightAware
04:23AM 34.4780 134.9040 62° Northeast 231 266 4,900 -1,020 Descending FlightAware
04:23AM 34.4830 134.9160 63° Northeast 233 268 4,700 -840 Descending FlightAware
04:24AM 34.4930 134.9380 61° Northeast 231 266 4,500 -600 Descending FlightAware
04:24AM 34.5050 134.9670 63° Northeast 225 259 4,300 -420 Descending FlightAware
04:24AM 34.5150 134.9910 63° Northeast 224 258 4,200  Descending FlightAware
04:25AM 34.5250 135.0140 62° Northeast 225 259 4,300  Climbing FlightAware
04:25AM 34.5320 135.0300 62° Northeast 219 252 4,200  Descending FlightAware
04:25AM 34.5420 135.0520 61° Northeast 214 246 4,300 120 Climbing FlightAware
04:26AM 34.5490 135.0680 62° Northeast 213 245 4,300  Level FlightAware
04:26AM 34.5600 135.0950 64° Northeast 215 247 4,300  Level FlightAware
04:26AM 34.5680 135.1120 60° Northeast 214 246 4,300 -180 Level FlightAware
04:27AM 34.5760 135.1330 65° Northeast 198 228 4,200  Descending FlightAware
04:27AM 34.5850 135.1520 60° Northeast 185 213 4,300 120 Climbing FlightAware
04:27AM 34.5920 135.1690 63° Northeast 174 200 4,300  Level FlightAware
04:28AM 34.6000 135.1870 62° Northeast 174 200 4,300  Level FlightAware
04:28AM 34.6060 135.2050 68° East 181 208 4,300 -240 Level FlightAware
04:28AM 34.6060 135.2100 90° East 182 209 4,200 -960 Descending FlightAware
04:29AM 34.6060 135.2520 90° East 185 213 3,600 -840 Descending FlightAware
04:29AM 34.6050 135.2720 93° East 183 211 3,400 -720 Descending FlightAware
04:29AM 34.6050 135.2880 90° East 182 209 3,200 -780 Descending FlightAware
04:30AM 34.6050 135.3120 90° East 178 205 2,900 -420 Descending FlightAware
04:30AM 34.6040 135.3320 93° East 172 198 2,900 -180 Level FlightAware
04:30AM 34.6040 135.3520 90° East 172 198 2,800 -360 Descending FlightAware
04:31AM 34.6020 135.3650 101° East 166 191 2,700 -660 Descending FlightAware
04:31AM 34.6000 135.3700 116° Southeast 170 196 2,600 -900 Descending FlightAware
04:31AM 34.5940 135.3750 146° Southeast 171 197 2,500 -300 Descending FlightAware
04:31AM 34.5870 135.3770 167° South 165 190 2,500 -240 Level FlightAware
04:31AM 34.5740 135.3770 180° South 175 201 2,400 -600 Descending FlightAware
04:32AM 34.5620 135.3760 184° South 167 192 2,200 -600 Descending FlightAware
04:32AM 34.5430 135.3670 201° Southwest 174 200 2,000 -540 Descending FlightAware
04:32AM 34.5270 135.3600 200° South 170 196 1,800 -600 Descending FlightAware
04:33AM 34.5130 135.3530 202° Southwest 159 183 1,600 -540 Descending FlightAware
04:33AM 34.4970 135.3450 202° Southwest 133 153 1,400 -180 Descending FlightAware
04:33AM 34.4920 135.3410 213° Southwest 135 155 1,500 300 Climbing FlightAware
04:33AM 34.4870 135.3340 229° Southwest 143 165 1,500 -240 Level FlightAware
04:34AM 34.4790 135.3210 233° Southwest 137 158 1,400 -300 Descending FlightAware
04:34AM 34.4710 135.3100 229° Southwest 140 161 1,300 -540 Descending FlightAware
04:34AM 34.4610 135.2940 233° Southwest 134 154 1,000 -780 Descending FlightAware
04:35AM 34.4550 135.2850 231° Southwest 136 157 800 -720 Descending FlightAware
04:35AM 34.4470 135.2740 229° Southwest 135 155 600 -600 Descending FlightAware
04:35AM 34.4400 135.2620 235° Southwest 132 152 400 -840 Descending FlightAware
04:36AM 34.4360 135.2560 231° Southwest 136 157 200 -360 Descending FlightAware
04:36AM 34.4270 135.2440 228° Southwest 136 157 200  Level FlightAware